Time;durP1;ratioP1;P1;durP2;ratioP2;P2;SDS_P1;SDS_P2;PMS_P1;PMS_P2;Temp;Humidity;BMP_temperature;BMP_pressure;BME280_temperature;BME280_humidity;BME280_pressure;Samples;Min_cycle;Max_cycle;Signal;HPM_P1;HPM_P2
2023/06/28 00:00:00;;;;;;;4.68;1.70;;;;;;;;;;4934724;29;20055;-79
2023/06/28 00:02:25;;;;;;;3.47;1.80;;;;;;;;;;4934491;29;20035;-79
2023/06/28 00:04:52;;;;;;;4.82;1.38;;;;;;;;;;4917605;29;20044;-79
2023/06/28 00:07:18;;;;;;;3.33;1.83;;;;;;;;;;4934215;29;20032;-78
2023/06/28 00:09:43;;;;;;;1.65;1.55;;;;;;;;;;4917478;29;20032;-78
2023/06/28 00:12:09;;;;;;;1.80;1.63;;;;;;;;;;4934105;29;20617;-78
2023/06/28 00:14:34;;;;;;;6.75;2.08;;;;;;;;;;4934355;29;20032;-78
2023/06/28 00:17:00;;;;;;;2.90;1.52;;;;;;;;;;4934209;29;20050;-79
2023/06/28 00:19:28;;;;;;;7.90;2.28;;;;;;;;;;4934448;29;20465;-78
2023/06/28 00:21:55;;;;;;;2.83;1.77;;;;;;;;;;4934051;29;20038;-78
2023/06/28 00:24:21;;;;;;;1.80;1.38;;;;;;;;;;4949056;29;20059;-78
2023/06/28 00:26:47;;;;;;;4.78;1.77;;;;;;;;;;4953389;29;20038;-77
2023/06/28 00:29:12;;;;;;;1.83;1.58;;;;;;;;;;4935622;29;20151;-78
2023/06/28 00:31:38;;;;;;;4.22;1.85;;;;;;;;;;4953316;28;20427;-78
2023/06/28 00:34:04;;;;;;;3.53;1.70;;;;;;;;;;4951387;29;20022;-78
2023/06/28 00:36:29;;;;;;;3.63;1.70;;;;;;;;;;4946647;29;20031;-78
2023/06/28 00:38:55;;;;;;;2.55;2.00;;;;;;;;;;4933886;29;20110;-78
2023/06/28 00:41:20;;;;;;;3.65;1.60;;;;;;;;;;4916583;29;20090;-80
2023/06/28 00:43:45;;;;;;;4.47;2.00;;;;;;;;;;4932263;29;20039;-79
2023/06/28 00:46:11;;;;;;;3.25;1.80;;;;;;;;;;4933616;29;20028;-78
2023/06/28 00:48:36;;;;;;;2.38;1.50;;;;;;;;;;4933935;29;20449;-78
2023/06/28 00:51:03;;;;;;;3.90;1.52;;;;;;;;;;4933534;29;20082;-79
2023/06/28 00:53:30;;;;;;;3.25;1.90;;;;;;;;;;4932775;29;20023;-78
2023/06/28 00:55:57;;;;;;;2.90;1.50;;;;;;;;;;4934669;29;20078;-78
2023/06/28 00:58:25;;;;;;;2.72;1.80;;;;;;;;;;4953041;29;20074;-78
2023/06/28 01:00:51;;;;;;;4.57;2.17;;;;;;;;;;4952678;29;20033;-79
2023/06/28 01:03:18;;;;;;;2.85;1.65;;;;;;;;;;4951232;29;20022;-78
2023/06/28 01:05:52;;;;;;;2.45;1.55;;;;;;;;;;4952445;29;20027;-78
2023/06/28 01:08:18;;;;;;;3.33;1.73;;;;;;;;;;4916849;29;20032;-78
2023/06/28 01:10:45;;;;;;;2.78;1.75;;;;;;;;;;4933971;29;20031;-78
2023/06/28 01:13:11;;;;;;;5.32;1.92;;;;;;;;;;4933631;29;20445;-79
2023/06/28 01:15:37;;;;;;;4.97;1.50;;;;;;;;;;4933191;29;20032;-79
2023/06/28 01:18:02;;;;;;;3.75;1.80;;;;;;;;;;4933048;29;20096;-78
2023/06/28 01:20:30;;;;;;;1.80;1.60;;;;;;;;;;4915966;29;20028;-79
2023/06/28 01:22:56;;;;;;;2.72;1.58;;;;;;;;;;4915358;29;20032;-79
2023/06/28 01:25:22;;;;;;;3.33;1.67;;;;;;;;;;4931140;29;20047;-78
2023/06/28 01:27:48;;;;;;;3.65;1.85;;;;;;;;;;4932780;29;20035;-78
2023/06/28 01:30:17;;;;;;;3.80;2.00;;;;;;;;;;4933399;29;20536;-77
2023/06/28 01:32:43;;;;;;;2.85;1.85;;;;;;;;;;4915615;29;20097;-78
2023/06/28 01:35:14;;;;;;;4.38;2.15;;;;;;;;;;4914735;29;20032;-79
2023/06/28 01:37:40;;;;;;;2.40;1.90;;;;;;;;;;4926114;29;20019;-79
2023/06/28 01:40:08;;;;;;;2.40;2.00;;;;;;;;;;4951462;28;20046;-79
2023/06/28 01:42:36;;;;;;;3.25;1.95;;;;;;;;;;4953294;28;20027;-77
2023/06/28 01:45:02;;;;;;;2.92;1.70;;;;;;;;;;4956463;29;20031;-78
2023/06/28 01:47:27;;;;;;;1.77;1.55;;;;;;;;;;4954342;29;20051;-79
2023/06/28 01:49:53;;;;;;;10.85;2.60;;;;;;;;;;4954089;29;20093;-79
2023/06/28 01:52:19;;;;;;;3.38;2.15;;;;;;;;;;4929115;29;20028;-79
2023/06/28 01:54:45;;;;;;;8.15;2.40;;;;;;;;;;4937303;29;20071;-78
2023/06/28 01:57:12;;;;;;;2.17;1.95;;;;;;;;;;4934896;29;20376;-79
2023/06/28 01:59:37;;;;;;;3.40;2.03;;;;;;;;;;4933958;29;20106;-78
2023/06/28 02:02:03;;;;;;;2.45;1.77;;;;;;;;;;4931514;29;20503;-78
2023/06/28 02:04:28;;;;;;;5.45;1.90;;;;;;;;;;4916324;29;20085;-77
2023/06/28 02:06:54;;;;;;;3.53;1.83;;;;;;;;;;4934799;29;20027;-77
2023/06/28 02:09:19;;;;;;;3.28;2.03;;;;;;;;;;4950602;29;20038;-79
2023/06/28 02:11:45;;;;;;;2.78;1.85;;;;;;;;;;4950736;29;21024;-78
2023/06/28 02:14:10;;;;;;;4.28;1.65;;;;;;;;;;4949808;29;20460;-79
2023/06/28 02:16:37;;;;;;;5.60;2.05;;;;;;;;;;4951793;29;20058;-79
2023/06/28 02:19:03;;;;;;;4.18;1.88;;;;;;;;;;4916167;29;20078;-78
2023/06/28 02:21:29;;;;;;;4.97;1.83;;;;;;;;;;4932022;28;20035;-78
2023/06/28 02:23:54;;;;;;;3.20;1.60;;;;;;;;;;4933967;29;20047;-79
2023/06/28 02:26:20;;;;;;;8.07;2.33;;;;;;;;;;4951027;28;20035;-78
2023/06/28 02:28:45;;;;;;;2.40;2.17;;;;;;;;;;4951852;28;20054;-79
2023/06/28 02:31:11;;;;;;;2.08;1.88;;;;;;;;;;4934439;29;20036;-79
2023/06/28 02:33:36;;;;;;;7.97;2.53;;;;;;;;;;4934426;29;20031;-78
2023/06/28 02:36:02;;;;;;;3.63;2.20;;;;;;;;;;4934061;29;20077;-78
2023/06/28 02:38:28;;;;;;;4.35;1.90;;;;;;;;;;4939700;29;20476;-79
2023/06/28 02:40:53;;;;;;;2.40;2.00;;;;;;;;;;4931160;29;20036;-78
2023/06/28 02:43:19;;;;;;;2.90;1.98;;;;;;;;;;4932038;29;20038;-77
2023/06/28 02:45:44;;;;;;;3.10;2.33;;;;;;;;;;4933379;29;20030;-78
2023/06/28 02:48:10;;;;;;;3.22;2.22;;;;;;;;;;4918580;29;20063;-77
2023/06/28 02:50:35;;;;;;;2.40;1.65;;;;;;;;;;4918541;29;20170;-78
2023/06/28 02:53:01;;;;;;;3.15;2.08;;;;;;;;;;4942308;29;20051;-77
2023/06/28 02:55:26;;;;;;;6.55;2.38;;;;;;;;;;4953611;29;20035;-79
2023/06/28 02:57:52;;;;;;;3.13;2.25;;;;;;;;;;4937792;29;20468;-79
2023/06/28 03:00:18;;;;;;;5.20;2.45;;;;;;;;;;4937512;29;20498;-77
2023/06/28 03:02:44;;;;;;;5.70;2.45;;;;;;;;;;4953477;29;20023;-79
2023/06/28 03:05:09;;;;;;;2.55;2.30;;;;;;;;;;4954589;29;20042;-79
2023/06/28 03:07:35;;;;;;;6.68;2.33;;;;;;;;;;4937197;29;20086;-79
2023/06/28 03:10:00;;;;;;;7.38;2.42;;;;;;;;;;4941201;28;20627;-78
2023/06/28 03:12:25;;;;;;;2.53;2.10;;;;;;;;;;4950251;28;20042;-77
2023/06/28 03:14:51;;;;;;;3.53;2.20;;;;;;;;;;4934834;29;20034;-75
2023/06/28 03:17:19;;;;;;;5.63;2.17;;;;;;;;;;4917554;29;20400;-75
2023/06/28 03:19:45;;;;;;;15.38;3.20;;;;;;;;;;4922454;29;20027;-76
2023/06/28 03:22:11;;;;;;;4.13;2.00;;;;;;;;;;4955137;28;20060;-77
2023/06/28 03:24:37;;;;;;;5.72;2.17;;;;;;;;;;4925774;29;20079;-78
2023/06/28 03:27:02;;;;;;;3.13;2.20;;;;;;;;;;4937239;29;20059;-78
2023/06/28 03:29:29;;;;;;;3.45;2.42;;;;;;;;;;4937368;29;20039;-76
2023/06/28 03:31:55;;;;;;;1.95;1.75;;;;;;;;;;4937971;29;20152;-77
2023/06/28 03:34:20;;;;;;;3.08;1.90;;;;;;;;;;4945658;29;20051;-78
2023/06/28 03:36:47;;;;;;;2.95;2.40;;;;;;;;;;4948914;29;20094;-78
2023/06/28 03:39:13;;;;;;;4.20;2.17;;;;;;;;;;4935862;29;20031;-77
2023/06/28 03:41:38;;;;;;;4.18;2.40;;;;;;;;;;4947328;29;20036;-77
2023/06/28 03:44:04;;;;;;;4.57;2.08;;;;;;;;;;4945710;29;20027;-78
2023/06/28 03:46:29;;;;;;;4.30;2.60;;;;;;;;;;4930414;29;20358;-77
2023/06/28 03:48:54;;;;;;;2.42;1.98;;;;;;;;;;4942867;29;20028;-78
2023/06/28 03:51:20;;;;;;;6.43;2.55;;;;;;;;;;4939059;29;20059;-79
2023/06/28 03:53:45;;;;;;;2.78;2.05;;;;;;;;;;4938535;29;20032;-79
2023/06/28 03:56:11;;;;;;;2.47;1.90;;;;;;;;;;4938464;29;20116;-78
2023/06/28 03:58:36;;;;;;;3.97;1.90;;;;;;;;;;4936231;29;20464;-79
2023/06/28 04:01:02;;;;;;;4.82;2.00;;;;;;;;;;4913381;29;20031;-77
2023/06/28 04:03:27;;;;;;;3.10;1.88;;;;;;;;;;4934646;29;20306;-75
2023/06/28 04:05:53;;;;;;;2.25;1.80;;;;;;;;;;4935171;29;20516;-76
2023/06/28 04:08:19;;;;;;;5.78;2.80;;;;;;;;;;4934421;29;20551;-76
2023/06/28 04:10:44;;;;;;;8.10;2.08;;;;;;;;;;4932667;29;20345;-77
2023/06/28 04:13:10;;;;;;;2.58;2.35;;;;;;;;;;4934526;29;20027;-78
2023/06/28 04:15:36;;;;;;;5.78;2.60;;;;;;;;;;4934349;29;20037;-77
2023/06/28 04:18:02;;;;;;;3.85;2.10;;;;;;;;;;4918643;29;20110;-76
2023/06/28 04:20:27;;;;;;;3.20;1.95;;;;;;;;;;4918717;29;20027;-77
2023/06/28 04:22:53;;;;;;;4.97;2.20;;;;;;;;;;4919054;29;20015;-76
2023/06/28 04:25:18;;;;;;;6.25;2.08;;;;;;;;;;4935342;29;20051;-77
2023/06/28 04:27:44;;;;;;;4.25;1.90;;;;;;;;;;4933838;29;20024;-76
2023/06/28 04:30:10;;;;;;;2.83;2.15;;;;;;;;;;4933298;29;20634;-77
2023/06/28 04:32:36;;;;;;;3.17;2.05;;;;;;;;;;4916293;29;20027;-77
2023/06/28 04:35:01;;;;;;;4.10;2.63;;;;;;;;;;4934129;29;20059;-76
2023/06/28 04:37:27;;;;;;;2.85;1.80;;;;;;;;;;4916889;29;20692;-76
2023/06/28 04:39:56;;;;;;;4.50;2.25;;;;;;;;;;4916273;29;20024;-76
2023/06/28 04:42:21;;;;;;;3.33;2.17;;;;;;;;;;4916339;29;20028;-76
2023/06/28 04:44:47;;;;;;;2.50;2.08;;;;;;;;;;4933784;29;20027;-76
2023/06/28 04:47:15;;;;;;;5.00;2.72;;;;;;;;;;4916309;29;20051;-76
2023/06/28 04:49:44;;;;;;;4.93;2.22;;;;;;;;;;4916342;29;20061;-77
2023/06/28 04:52:12;;;;;;;14.65;3.53;;;;;;;;;;4916499;29;20031;-77
2023/06/28 04:54:37;;;;;;;4.53;2.70;;;;;;;;;;4916285;29;20032;-76
2023/06/28 04:57:03;;;;;;;4.72;3.13;;;;;;;;;;4932156;29;20098;-77
2023/06/28 04:59:28;;;;;;;3.83;2.70;;;;;;;;;;4916221;29;20034;-76
2023/06/28 05:01:54;;;;;;;6.10;2.42;;;;;;;;;;4933664;29;20034;-76
2023/06/28 05:04:20;;;;;;;9.05;2.70;;;;;;;;;;4931873;29;20401;-76
2023/06/28 05:06:46;;;;;;;3.08;2.38;;;;;;;;;;4916162;29;20031;-76
2023/06/28 05:09:11;;;;;;;5.30;2.10;;;;;;;;;;4931276;29;20404;-76
2023/06/28 05:11:37;;;;;;;4.80;2.00;;;;;;;;;;4934282;29;20031;-76
2023/06/28 05:14:02;;;;;;;2.53;2.22;;;;;;;;;;4969043;28;20392;-76
2023/06/28 05:16:28;;;;;;;4.38;2.13;;;;;;;;;;4954245;28;20030;-76
2023/06/28 05:18:53;;;;;;;3.92;2.13;;;;;;;;;;4934183;28;20391;-76
2023/06/28 05:21:19;;;;;;;3.90;2.17;;;;;;;;;;4933477;29;20661;-78
2023/06/28 05:23:44;;;;;;;3.88;2.05;;;;;;;;;;4949857;28;20027;-78
2023/06/28 05:26:10;;;;;;;7.10;3.10;;;;;;;;;;4968254;28;20495;-76
2023/06/28 05:28:35;;;;;;;4.32;2.22;;;;;;;;;;4964422;28;20120;-75
2023/06/28 05:31:05;;;;;;;7.70;2.00;;;;;;;;;;4951953;29;20416;-77
2023/06/28 05:33:31;;;;;;;2.70;1.67;;;;;;;;;;4928077;29;20625;-74
2023/06/28 05:35:56;;;;;;;6.50;2.25;;;;;;;;;;4927309;28;20162;-75
2023/06/28 05:38:21;;;;;;;3.00;2.22;;;;;;;;;;4946704;28;20106;-77
2023/06/28 05:40:53;;;;;;;5.55;2.00;;;;;;;;;;4926451;29;20031;-76
2023/06/28 05:43:21;;;;;;;4.50;2.88;;;;;;;;;;4924842;29;20146;-76
2023/06/28 05:45:46;;;;;;;2.88;1.77;;;;;;;;;;4945925;28;20062;-74
2023/06/28 05:48:12;;;;;;;3.45;2.00;;;;;;;;;;4942045;28;20031;-76
2023/06/28 05:50:37;;;;;;;4.75;2.30;;;;;;;;;;4922160;29;20062;-74
2023/06/28 05:53:03;;;;;;;7.78;2.50;;;;;;;;;;4945652;28;20027;-80
2023/06/28 05:55:28;;;;;;;5.95;2.30;;;;;;;;;;4947797;28;20027;-79
2023/06/28 05:57:54;;;;;;;6.70;2.45;;;;;;;;;;4947868;29;20066;-77
2023/06/28 06:00:19;;;;;;;3.80;2.03;;;;;;;;;;4963833;28;20059;-76
2023/06/28 06:02:46;;;;;;;2.25;1.90;;;;;;;;;;4936052;28;20051;-77
2023/06/28 06:05:13;;;;;;;3.00;1.92;;;;;;;;;;4945451;28;20349;-76
2023/06/28 06:07:39;;;;;;;4.13;2.03;;;;;;;;;;4934078;29;20112;-75
2023/06/28 06:10:06;;;;;;;4.80;2.10;;;;;;;;;;4960931;28;20034;-77
2023/06/28 06:12:31;;;;;;;4.80;2.10;;;;;;;;;;4934772;29;20035;-75
2023/06/28 06:15:06;;;;;;;5.22;2.40;;;;;;;;;;4947470;28;20039;-80
2023/06/28 06:17:34;;;;;;;6.15;2.38;;;;;;;;;;4930144;29;20043;-77
2023/06/28 06:20:01;;;;;;;4.72;2.30;;;;;;;;;;4956962;28;20091;-77
2023/06/28 06:22:27;;;;;;;4.55;2.50;;;;;;;;;;4954782;28;20039;-80
2023/06/28 06:24:59;;;;;;;5.53;2.13;;;;;;;;;;4952850;28;20138;-84
2023/06/28 06:27:25;;;;;;;4.10;2.63;;;;;;;;;;4951263;28;20035;-75
2023/06/28 06:29:53;;;;;;;2.72;2.10;;;;;;;;;;4944567;28;20027;-78
2023/06/28 06:32:19;;;;;;;4.43;2.60;;;;;;;;;;4928674;29;20464;-78
2023/06/28 06:34:45;;;;;;;4.95;2.58;;;;;;;;;;4936930;28;20027;-77
2023/06/28 06:37:12;;;;;;;5.45;2.28;;;;;;;;;;4937665;29;20039;-76
2023/06/28 06:39:47;;;;;;;3.22;2.45;;;;;;;;;;4947236;28;20087;-76
2023/06/28 06:42:12;;;;;;;7.72;2.60;;;;;;;;;;4946671;28;20034;-77
2023/06/28 06:44:38;;;;;;;6.13;2.05;;;;;;;;;;4957130;28;20103;-76
2023/06/28 06:47:09;;;;;;;2.95;1.95;;;;;;;;;;4957738;28;20110;-78
2023/06/28 06:49:35;;;;;;;5.72;2.28;;;;;;;;;;4967403;28;20042;-73
2023/06/28 06:52:00;;;;;;;4.05;2.28;;;;;;;;;;4965746;28;20037;-76
2023/06/28 06:54:29;;;;;;;3.97;2.38;;;;;;;;;;4936479;28;20034;-74
2023/06/28 06:56:57;;;;;;;2.72;2.08;;;;;;;;;;4945123;29;20031;-79
2023/06/28 06:59:26;;;;;;;6.03;2.00;;;;;;;;;;4951702;28;20031;-77
2023/06/28 07:01:57;;;;;;;6.72;2.25;;;;;;;;;;4938017;29;20043;-78
2023/06/28 07:04:23;;;;;;;4.13;1.70;;;;;;;;;;4949282;28;20042;-75
2023/06/28 07:06:49;;;;;;;5.35;2.05;;;;;;;;;;4947296;28;20035;-74
2023/06/28 07:09:15;;;;;;;5.78;1.90;;;;;;;;;;4948606;28;20033;-77
2023/06/28 07:11:42;;;;;;;3.03;2.00;;;;;;;;;;4954171;28;20042;-76
2023/06/28 07:14:11;;;;;;;8.52;2.97;;;;;;;;;;4931199;28;20043;-78
2023/06/28 07:16:36;;;;;;;2.38;1.70;;;;;;;;;;4945997;28;20094;-78
2023/06/28 07:19:05;;;;;;;4.55;2.10;;;;;;;;;;4946387;28;21142;-78
2023/06/28 07:21:37;;;;;;;3.15;1.58;;;;;;;;;;4953057;28;20134;-79
2023/06/28 07:24:03;;;;;;;2.65;1.80;;;;;;;;;;4946980;28;20027;-75
2023/06/28 07:26:31;;;;;;;4.40;1.55;;;;;;;;;;4930775;28;20046;-78
2023/06/28 07:28:58;;;;;;;2.22;1.55;;;;;;;;;;4952620;28;20090;-80
2023/06/28 07:31:24;;;;;;;2.42;1.52;;;;;;;;;;4947443;28;20032;-78
2023/06/28 07:33:51;;;;;;;4.68;1.80;;;;;;;;;;4923312;28;20369;-78
2023/06/28 07:36:17;;;;;;;6.72;2.17;;;;;;;;;;4947946;28;20372;-76
2023/06/28 07:38:44;;;;;;;6.50;1.90;;;;;;;;;;4929422;28;20126;-77
2023/06/28 07:41:10;;;;;;;5.05;1.80;;;;;;;;;;4950203;28;20126;-78
2023/06/28 07:43:36;;;;;;;5.47;1.70;;;;;;;;;;4946922;28;20119;-76
2023/06/28 07:46:03;;;;;;;5.63;2.53;;;;;;;;;;4947060;28;20042;-75
2023/06/28 07:48:29;;;;;;;7.70;1.80;;;;;;;;;;4954187;28;20035;-76
2023/06/28 07:50:55;;;;;;;3.92;1.95;;;;;;;;;;4928685;29;20053;-76
2023/06/28 07:53:21;;;;;;;6.32;1.98;;;;;;;;;;4944661;28;20035;-75
2023/06/28 07:55:47;;;;;;;5.57;1.92;;;;;;;;;;4938088;28;20035;-76
2023/06/28 07:58:13;;;;;;;2.47;1.80;;;;;;;;;;4948726;28;20541;-78
2023/06/28 08:00:39;;;;;;;5.80;2.03;;;;;;;;;;4934489;29;20031;-74
2023/06/28 08:03:04;;;;;;;4.38;2.00;;;;;;;;;;4926813;28;20314;-76
2023/06/28 08:05:30;;;;;;;9.93;2.10;;;;;;;;;;4954051;28;20468;-77
2023/06/28 08:08:00;;;;;;;5.50;1.95;;;;;;;;;;4933727;28;20023;-79
2023/06/28 08:10:25;;;;;;;6.00;2.22;;;;;;;;;;4952730;28;20813;-75
2023/06/28 08:12:52;;;;;;;9.93;2.03;;;;;;;;;;4935380;28;20130;-77
2023/06/28 08:15:18;;;;;;;5.70;2.13;;;;;;;;;;4928178;28;20064;-77
2023/06/28 08:17:47;;;;;;;3.30;1.85;;;;;;;;;;4944891;28;20038;-77
2023/06/28 08:20:17;;;;;;;6.40;2.15;;;;;;;;;;4928108;29;20047;-78
2023/06/28 08:22:44;;;;;;;3.70;2.25;;;;;;;;;;4937095;28;20494;-75
2023/06/28 08:25:10;;;;;;;4.10;1.85;;;;;;;;;;4941837;28;20051;-78
2023/06/28 08:27:41;;;;;;;3.80;1.95;;;;;;;;;;4948285;28;20472;-75
2023/06/28 08:30:08;;;;;;;4.68;2.15;;;;;;;;;;4927225;29;20040;-76
2023/06/28 08:32:35;;;;;;;4.60;2.10;;;;;;;;;;4941321;28;20047;-79
2023/06/28 08:35:04;;;;;;;7.38;2.22;;;;;;;;;;4932565;28;20045;-77
2023/06/28 08:37:36;;;;;;;2.38;1.92;;;;;;;;;;4952573;28;20038;-76
2023/06/28 08:40:04;;;;;;;2.58;1.80;;;;;;;;;;4948049;28;20042;-75
2023/06/28 08:42:34;;;;;;;3.25;2.00;;;;;;;;;;4930285;28;20130;-75
2023/06/28 08:45:02;;;;;;;5.00;2.47;;;;;;;;;;4946562;28;20019;-78
2023/06/28 08:47:32;;;;;;;3.53;2.10;;;;;;;;;;4951872;28;20122;-76
2023/06/28 08:50:01;;;;;;;7.30;2.65;;;;;;;;;;4938024;29;20086;-75
2023/06/28 08:52:28;;;;;;;2.72;2.30;;;;;;;;;;4936083;28;20043;-77
2023/06/28 08:54:57;;;;;;;4.53;2.08;;;;;;;;;;4946603;28;20165;-78
2023/06/28 08:57:27;;;;;;;6.53;2.20;;;;;;;;;;4951738;28;20035;-79
2023/06/28 08:59:53;;;;;;;3.60;2.35;;;;;;;;;;4936663;28;20074;-78
2023/06/28 09:02:21;;;;;;;5.15;2.58;;;;;;;;;;4930092;29;20039;-79
2023/06/28 09:04:50;;;;;;;5.05;2.80;;;;;;;;;;4945898;28;20039;-79
2023/06/28 09:07:17;;;;;;;3.95;2.55;;;;;;;;;;4949903;28;20043;-79
2023/06/28 09:09:48;;;;;;;3.20;2.30;;;;;;;;;;4943987;28;20061;-79
2023/06/28 09:12:16;;;;;;;4.43;2.78;;;;;;;;;;4946177;28;20031;-80
2023/06/28 09:14:43;;;;;;;4.85;2.75;;;;;;;;;;4943338;28;20085;-79
2023/06/28 09:17:15;;;;;;;5.40;2.88;;;;;;;;;;4932563;28;20031;-80
2023/06/28 09:19:46;;;;;;;6.57;3.22;;;;;;;;;;4932800;29;20039;-78
2023/06/28 09:22:17;;;;;;;5.43;2.72;;;;;;;;;;4955096;29;20392;-79
2023/06/28 09:24:43;;;;;;;3.55;2.85;;;;;;;;;;4927029;29;20075;-78
2023/06/28 09:27:11;;;;;;;7.82;2.53;;;;;;;;;;4935910;29;20034;-80
2023/06/28 09:29:40;;;;;;;5.03;2.50;;;;;;;;;;4920578;29;20063;-77
2023/06/28 09:32:06;;;;;;;4.20;2.70;;;;;;;;;;4939452;29;20030;-81
2023/06/28 09:34:37;;;;;;;3.28;2.10;;;;;;;;;;4913872;29;20567;-78
2023/06/28 09:37:04;;;;;;;3.90;2.80;;;;;;;;;;4933242;29;20027;-76
2023/06/28 09:39:41;;;;;;;7.22;3.42;;;;;;;;;;4908988;29;20032;-78
2023/06/28 09:42:08;;;;;;;7.97;2.78;;;;;;;;;;4916957;29;20031;-80
2023/06/28 09:44:34;;;;;;;7.97;2.97;;;;;;;;;;4928585;29;20031;-79
2023/06/28 09:47:04;;;;;;;3.92;3.20;;;;;;;;;;4933022;29;20058;-78
2023/06/28 09:49:30;;;;;;;10.60;4.57;;;;;;;;;;4918224;29;20035;-79
2023/06/28 09:52:09;;;;;;;4.10;2.70;;;;;;;;;;4914316;29;20040;-79
2023/06/28 09:54:46;;;;;;;4.95;3.03;;;;;;;;;;4931226;29;20068;-78
2023/06/28 09:57:12;;;;;;;5.72;3.33;;;;;;;;;;4934758;29;20070;-80
2023/06/28 09:59:43;;;;;;;3.55;2.65;;;;;;;;;;4919002;29;20179;-79
2023/06/28 10:02:09;;;;;;;6.07;2.40;;;;;;;;;;4933911;29;20566;-80
2023/06/28 10:04:37;;;;;;;2.85;2.50;;;;;;;;;;4933059;29;20039;-81
2023/06/28 10:07:04;;;;;;;6.22;3.10;;;;;;;;;;4917041;29;20035;-79
2023/06/28 10:09:39;;;;;;;6.72;2.25;;;;;;;;;;4938345;29;20049;-77
2023/06/28 10:12:16;;;;;;;2.60;2.40;;;;;;;;;;4937173;29;20032;-78
2023/06/28 10:15:06;;;;;;;1.92;1.77;;;;;;;;;;4937939;29;20035;-78
2023/06/28 10:17:34;;;;;;;7.97;2.50;;;;;;;;;;4922774;29;20039;-76
2023/06/28 10:20:00;;;;;;;6.38;2.10;;;;;;;;;;4913819;29;20281;-78
2023/06/28 10:22:29;;;;;;;2.17;1.98;;;;;;;;;;4927222;29;20036;-82
2023/06/28 10:24:57;;;;;;;2.42;2.00;;;;;;;;;;4929066;28;20570;-79
2023/06/28 10:27:23;;;;;;;9.70;2.10;;;;;;;;;;4932007;29;20051;-79
2023/06/28 10:29:51;;;;;;;2.50;2.20;;;;;;;;;;4947481;28;20391;-80
2023/06/28 10:32:16;;;;;;;1.77;1.67;;;;;;;;;;4933420;29;20176;-80
2023/06/28 10:34:46;;;;;;;6.85;2.15;;;;;;;;;;4945899;28;20047;-77
2023/06/28 10:37:19;;;;;;;3.30;1.67;;;;;;;;;;4955741;28;20035;-80
2023/06/28 10:39:53;;;;;;;4.07;1.50;;;;;;;;;;4952385;29;20023;-78
2023/06/28 10:42:20;;;;;;;6.78;2.00;;;;;;;;;;4945771;28;20043;-80
2023/06/28 10:44:57;;;;;;;4.60;1.75;;;;;;;;;;4956014;28;20042;-77
2023/06/28 10:47:27;;;;;;;4.95;1.80;;;;;;;;;;4952479;28;20070;-77
2023/06/28 10:50:08;;;;;;;3.03;2.15;;;;;;;;;;4928808;29;20040;-78
2023/06/28 10:52:52;;;;;;;4.07;2.22;;;;;;;;;;4921995;29;20944;-77
2023/06/28 10:55:32;;;;;;;4.82;2.33;;;;;;;;;;4932776;29;20035;-75
2023/06/28 10:58:10;;;;;;;2.58;1.80;;;;;;;;;;4917284;29;20043;-77
2023/06/28 11:00:49;;;;;;;4.47;2.20;;;;;;;;;;4898562;29;20035;-77
2023/06/28 11:03:16;;;;;;;4.13;1.98;;;;;;;;;;4926202;29;20023;-76
2023/06/28 11:05:45;;;;;;;3.15;1.70;;;;;;;;;;4912326;29;20047;-77
2023/06/28 11:08:13;;;;;;;3.35;1.40;;;;;;;;;;4916678;29;20056;-79
2023/06/28 11:10:40;;;;;;;3.53;1.40;;;;;;;;;;4948037;29;20028;-80
2023/06/28 11:13:38;;;;;;;3.83;1.38;;;;;;;;;;4918679;29;20103;-76
2023/06/28 11:16:08;;;;;;;2.60;1.15;;;;;;;;;;4934113;29;20135;-80
2023/06/28 11:18:41;;;;;;;2.10;1.48;;;;;;;;;;4922681;29;20028;-79
2023/06/28 11:21:15;;;;;;;3.67;1.48;;;;;;;;;;4934681;29;20059;-78
2023/06/28 11:23:58;;;;;;;3.65;2.22;;;;;;;;;;4914969;29;20090;-78
2023/06/28 11:26:34;;;;;;;1.58;1.48;;;;;;;;;;4888978;29;20461;-77
2023/06/28 11:29:02;;;;;;;2.75;1.35;;;;;;;;;;4899444;29;20032;-77
2023/06/28 11:31:34;;;;;;;9.10;1.70;;;;;;;;;;4914619;29;20044;-79
2023/06/28 11:34:02;;;;;;;3.50;1.48;;;;;;;;;;4918297;29;20275;-79
2023/06/28 11:36:28;;;;;;;3.92;1.73;;;;;;;;;;4903585;29;20039;-78
2023/06/28 11:38:59;;;;;;;4.00;1.42;;;;;;;;;;4906306;29;20036;-80
2023/06/28 11:41:24;;;;;;;2.60;1.30;;;;;;;;;;4933983;29;20054;-78
2023/06/28 11:44:03;;;;;;;2.63;1.48;;;;;;;;;;4918140;29;20122;-78
2023/06/28 11:46:36;;;;;;;2.75;1.42;;;;;;;;;;4937780;29;20035;-78
2023/06/28 11:49:07;;;;;;;3.78;1.30;;;;;;;;;;4920291;29;20035;-79
2023/06/28 11:51:34;;;;;;;;;;;;;;;;;;4917642;29;20112;-79
2023/06/28 11:54:04;;;;;;;4.80;1.50;;;;;;;;;;4916810;29;19922;-79
2023/06/28 11:56:46;;;;;;;3.83;0.82;;;;;;;;;;4905891;29;20139;-80
2023/06/28 11:59:24;;;;;;;8.02;1.42;;;;;;;;;;4909308;29;20825;-78
2023/06/28 12:02:10;;;;;;;2.83;1.40;;;;;;;;;;4936703;29;20044;-79
2023/06/28 12:04:53;;;;;;;11.77;1.98;;;;;;;;;;4922014;29;20030;-80
2023/06/28 12:07:21;;;;;;;4.07;1.25;;;;;;;;;;4918349;29;21086;-77
2023/06/28 12:09:56;;;;;;;4.43;1.15;;;;;;;;;;4938450;28;20309;-77
2023/06/28 12:12:36;;;;;;;4.65;1.27;;;;;;;;;;4936126;29;20035;-79
2023/06/28 12:15:02;;;;;;;5.57;1.25;;;;;;;;;;4934995;29;20089;-77
2023/06/28 12:17:44;;;;;;;5.63;1.48;;;;;;;;;;4912043;29;20139;-77
2023/06/28 12:20:15;;;;;;;3.05;1.00;;;;;;;;;;4919318;29;20118;-79
2023/06/28 12:22:43;;;;;;;3.38;1.30;;;;;;;;;;4933048;29;20107;-78
2023/06/28 12:25:12;;;;;;;3.30;1.25;;;;;;;;;;4927988;28;20047;-78
2023/06/28 12:28:04;;;;;;;5.47;1.65;;;;;;;;;;4929553;29;20106;-78
2023/06/28 12:30:32;;;;;;;1.92;0.88;;;;;;;;;;4932315;29;20036;-83
2023/06/28 12:33:07;;;;;;;3.58;1.13;;;;;;;;;;4933244;29;20031;-75
2023/06/28 12:35:34;;;;;;;4.22;1.48;;;;;;;;;;4957922;28;20035;-77
2023/06/28 12:38:02;;;;;;;4.03;1.15;;;;;;;;;;4941251;29;20070;-78
2023/06/28 12:40:33;;;;;;;4.47;1.27;;;;;;;;;;4947889;28;20050;-77
2023/06/28 12:43:14;;;;;;;;;;;;;;;;;;4927988;29;20106;-78
2023/06/28 12:45:53;;;;;;;2.35;1.20;;;;;;;;;;4939043;28;19918;-76
2023/06/28 12:48:21;;;;;;;2.90;1.10;;;;;;;;;;4964809;28;20126;-78
2023/06/28 12:50:52;;;;;;;2.70;1.20;;;;;;;;;;4936017;29;20333;-77
2023/06/28 12:53:21;;;;;;;3.65;1.20;;;;;;;;;;4936449;29;20288;-78
2023/06/28 12:55:47;;;;;;;3.20;1.20;;;;;;;;;;4953697;28;20027;-77
2023/06/28 12:58:13;;;;;;;1.40;1.00;;;;;;;;;;4948891;28;20034;-79
2023/06/28 13:00:42;;;;;;;2.92;0.90;;;;;;;;;;4952823;28;20134;-76
2023/06/28 13:03:12;;;;;;;2.13;1.00;;;;;;;;;;4950107;29;20020;-76
2023/06/28 13:05:40;;;;;;;8.80;2.05;;;;;;;;;;4935464;28;20039;-78
2023/06/28 13:08:08;;;;;;;5.32;1.23;;;;;;;;;;4950998;28;20030;-76
2023/06/28 13:10:35;;;;;;;4.55;1.00;;;;;;;;;;4945868;28;20038;-77
2023/06/28 13:13:03;;;;;;;2.60;1.02;;;;;;;;;;4947824;28;20040;-78
2023/06/28 13:15:30;;;;;;;3.30;1.20;;;;;;;;;;4954195;28;20038;-77
2023/06/28 13:17:56;;;;;;;2.13;1.30;;;;;;;;;;4950000;28;20031;-78
2023/06/28 13:20:22;;;;;;;5.85;2.45;;;;;;;;;;4950217;28;20046;-77
2023/06/28 13:22:47;;;;;;;2.67;1.08;;;;;;;;;;4948422;28;20030;-77
2023/06/28 13:25:13;;;;;;;6.47;1.50;;;;;;;;;;4935802;28;20063;-80
2023/06/28 13:27:39;;;;;;;1.17;0.98;;;;;;;;;;4932738;29;20027;-78
2023/06/28 13:30:05;;;;;;;4.45;1.23;;;;;;;;;;4946218;28;20033;-77
2023/06/28 13:32:34;;;;;;;3.13;1.17;;;;;;;;;;4917510;29;20031;-78
2023/06/28 13:35:00;;;;;;;7.63;1.27;;;;;;;;;;4945961;28;20042;-78
2023/06/28 13:37:26;;;;;;;1.52;0.98;;;;;;;;;;4945302;28;20031;-75
2023/06/28 13:39:52;;;;;;;3.22;1.00;;;;;;;;;;4929892;29;20034;-77
2023/06/28 13:42:19;;;;;;;10.40;1.50;;;;;;;;;;4951352;29;20053;-78
2023/06/28 13:44:44;;;;;;;2.55;2.08;;;;;;;;;;4932948;29;20155;-78
2023/06/28 13:47:10;;;;;;;3.30;1.20;;;;;;;;;;4946477;28;20505;-78
2023/06/28 13:49:38;;;;;;;1.58;1.05;;;;;;;;;;4947631;29;20027;-77
2023/06/28 13:52:04;;;;;;;1.35;0.70;;;;;;;;;;4959582;28;20027;-78
2023/06/28 13:54:31;;;;;;;3.50;0.88;;;;;;;;;;4949529;29;20492;-76
2023/06/28 13:56:57;;;;;;;2.75;1.00;;;;;;;;;;4949832;29;20023;-78
2023/06/28 13:59:23;;;;;;;3.80;1.00;;;;;;;;;;4949431;28;20086;-79
2023/06/28 14:01:53;;;;;;;2.47;1.00;;;;;;;;;;4959224;28;20030;-75
2023/06/28 14:04:18;;;;;;;3.45;0.90;;;;;;;;;;4932353;29;20032;-77
2023/06/28 14:06:46;;;;;;;2.00;1.05;;;;;;;;;;4960518;28;20073;-80
2023/06/28 14:09:13;;;;;;;2.35;1.00;;;;;;;;;;4948524;29;20066;-78
2023/06/28 14:11:38;;;;;;;2.78;1.00;;;;;;;;;;4952949;29;20444;-78
2023/06/28 14:14:04;;;;;;;2.60;1.00;;;;;;;;;;4947620;29;20050;-76
2023/06/28 14:16:30;;;;;;;3.10;1.15;;;;;;;;;;4940443;29;20032;-78
2023/06/28 14:18:55;;;;;;;3.10;1.40;;;;;;;;;;4958730;29;20503;-78
2023/06/28 14:21:21;;;;;;;3.30;1.25;;;;;;;;;;4956625;29;20035;-79
2023/06/28 14:23:47;;;;;;;2.70;0.85;;;;;;;;;;4945426;29;20019;-78
2023/06/28 14:26:14;;;;;;;6.32;1.38;;;;;;;;;;4950823;29;20047;-78
2023/06/28 14:28:39;;;;;;;4.20;0.90;;;;;;;;;;4959895;29;20054;-80
2023/06/28 14:31:05;;;;;;;6.07;1.27;;;;;;;;;;4959156;29;20082;-78
2023/06/28 14:33:36;;;;;;;7.30;1.27;;;;;;;;;;4970443;28;20035;-80
2023/06/28 14:36:01;;;;;;;3.25;0.85;;;;;;;;;;4943707;29;20073;-79
2023/06/28 14:38:30;;;;;;;2.85;1.40;;;;;;;;;;4934082;29;20035;-77
2023/06/28 14:40:56;;;;;;;3.45;1.20;;;;;;;;;;4955585;28;20031;-79
2023/06/28 14:43:23;;;;;;;2.63;1.15;;;;;;;;;;4944390;29;20047;-78
2023/06/28 14:45:50;;;;;;;2.90;1.02;;;;;;;;;;4958941;28;20054;-78